Time;durP1;ratioP1;P1;durP2;ratioP2;P2;SDS_P1;SDS_P2;PMS_P1;PMS_P2;Temp;Humidity;BMP_temperature;BMP_pressure;BME280_temperature;BME280_humidity;BME280_pressure;Samples;Min_cycle;Max_cycle;Signal;HPM_P1;HPM_P2
2021/01/07 00:00:24;;;;;;;53.33;38.45;;;230.70;2176.00;;;;;;5116543;28;20032;-75
2021/01/07 00:02:50;;;;;;;27.77;21.15;;;230.60;2124.80;;;;;;5116694;28;20034;-75
2021/01/07 00:05:16;;;;;;;33.75;26.25;;;230.40;2099.20;;;;;;5116620;28;20429;-75
2021/01/07 00:07:42;;;;;;;16.52;14.43;;;230.40;2073.60;;;;;;5116423;28;20042;-75
2021/01/07 00:10:08;;;;;;;18.33;13.48;;;205.60;2048.00;;;;;;5116080;28;20024;-75
2021/01/07 00:12:34;;;;;;;21.63;17.25;;;205.60;2048.00;;;;;;5116227;28;20468;-74
2021/01/07 00:15:00;;;;;;;25.50;19.67;;;205.50;2073.60;;;;;;5116551;28;20035;-75
2021/01/07 00:17:26;;;;;;;18.50;15.10;;;205.50;2048.00;;;;;;5116500;28;20378;-75
2021/01/07 00:19:52;;;;;;;16.98;11.85;;;205.40;2048.00;;;;;;5115949;28;20094;-75
2021/01/07 00:22:17;;;;;;;17.92;12.70;;;205.30;2048.00;;;;;;5116198;28;20051;-74
2021/01/07 00:24:43;;;;;;;18.15;12.55;;;205.30;2073.60;;;;;;5116133;28;20020;-75
2021/01/07 00:27:09;;;;;;;18.48;14.15;;;205.30;2073.60;;;;;;5115996;28;20031;-75
2021/01/07 00:29:35;;;;;;;15.10;10.27;;;205.30;2048.00;;;;;;5116004;28;20032;-74
2021/01/07 00:32:01;;;;;;;19.98;13.30;;;205.20;2048.00;;;;;;5116046;28;20023;-75
2021/01/07 00:34:26;;;;;;;15.10;10.00;;;205.30;2048.00;;;;;;5116101;28;20019;-75
2021/01/07 00:36:56;;;;;;;17.45;11.70;;;205.30;2048.00;;;;;;5115905;28;20038;-74
2021/01/07 00:39:23;;;;;;;15.35;10.90;;;205.20;2022.40;;;;;;5115783;28;20371;-74
2021/01/07 00:41:58;;;;;;;16.35;10.55;;;205.10;2048.00;;;;;;5115655;28;20015;-75
2021/01/07 00:44:24;;;;;;;14.35;10.65;;;205.10;2048.00;;;;;;5115694;28;20024;-74
2021/01/07 00:46:51;;;;;;;11.23;7.43;;;205.00;2022.40;;;;;;5115802;28;20027;-75
2021/01/07 00:49:17;;;;;;;9.38;7.22;;;204.90;2022.40;;;;;;5116030;28;20409;-74
2021/01/07 00:51:43;;;;;;;16.85;11.32;;;204.90;2022.40;;;;;;5115521;28;20122;-75
2021/01/07 00:54:10;;;;;;;16.48;9.88;;;204.80;2022.40;;;;;;5096670;28;20038;-75
2021/01/07 00:56:37;;;;;;;14.73;9.30;;;204.80;2022.40;;;;;;5115394;28;20024;-75
2021/01/07 00:59:04;;;;;;;15.52;9.63;;;204.80;2022.40;;;;;;5115631;28;20061;-74
2021/01/07 01:01:30;;;;;;;21.17;12.95;;;204.90;2048.00;;;;;;5115607;28;20020;-75
2021/01/07 01:03:56;;;;;;;17.15;10.35;;;204.80;2022.40;;;;;;5115433;28;20024;-75
2021/01/07 01:06:28;;;;;;;14.88;9.45;;;204.80;2022.40;;;;;;5114989;28;20067;-75
2021/01/07 01:08:54;;;;;;;19.52;12.02;;;180.10;2022.40;;;;;;5115193;28;20026;-75
2021/01/07 01:11:20;;;;;;;27.33;15.65;;;204.80;2048.00;;;;;;5115209;28;20106;-75
2021/01/07 01:13:45;;;;;;;45.50;23.80;;;204.80;2048.00;;;;;;5115338;28;20024;-74
2021/01/07 01:16:11;;;;;;;45.78;21.33;;;204.80;2048.00;;;;;;5115201;28;20032;-75
2021/01/07 01:18:37;;;;;;;49.67;27.55;;;204.80;2048.00;;;;;;5115146;28;20028;-74
2021/01/07 01:21:03;;;;;;;34.58;19.13;;;204.80;2048.00;;;;;;5114758;28;20028;-74
2021/01/07 01:23:28;;;;;;;26.05;16.45;;;204.90;2048.00;;;;;;5115168;28;20376;-74
2021/01/07 01:25:54;;;;;;;28.45;16.45;;;205.00;2022.40;;;;;;5114238;28;20028;-74
2021/01/07 01:28:20;;;;;;;37.67;21.55;;;204.90;2022.40;;;;;;5114864;28;20089;-74
2021/01/07 01:30:46;;;;;;;28.67;19.70;;;204.90;2022.40;;;;;;5115124;28;20043;-73
2021/01/07 01:33:11;;;;;;;20.45;14.63;;;205.00;2022.40;;;;;;5115004;28;20019;-75
2021/01/07 01:35:37;;;;;;;14.98;9.85;;;205.00;2022.40;;;;;;5114880;28;20019;-74
2021/01/07 01:38:04;;;;;;;16.17;10.15;;;205.00;2022.40;;;;;;5114735;28;20023;-73
2021/01/07 01:40:29;;;;;;;14.05;8.77;;;205.00;2022.40;;;;;;5114650;28;20103;-74
2021/01/07 01:42:55;;;;;;;14.38;8.68;;;205.00;2022.40;;;;;;5114624;28;20108;-74
2021/01/07 01:45:21;;;;;;;10.48;7.03;;;205.00;1971.20;;;;;;5114684;28;20028;-74
2021/01/07 01:47:47;;;;;;;12.85;7.30;;;205.00;1996.80;;;;;;5114651;28;20024;-75
2021/01/07 01:50:12;;;;;;;17.83;10.13;;;205.00;1996.80;;;;;;5114178;28;20034;-77
2021/01/07 01:52:38;;;;;;;26.75;19.45;;;205.00;1996.80;;;;;;5114379;28;20072;-75
2021/01/07 01:55:05;;;;;;;32.28;22.50;;;205.00;1996.80;;;;;;5095515;28;20027;-75
2021/01/07 01:57:32;;;;;;;24.75;16.70;;;205.00;1996.80;;;;;;5114235;28;20015;-74
2021/01/07 01:59:58;;;;;;;18.70;11.57;;;205.00;1996.80;;;;;;5114335;28;20019;-76
2021/01/07 02:02:24;;;;;;;13.43;9.63;;;204.90;1996.80;;;;;;5114258;28;20027;-75
2021/01/07 02:04:50;;;;;;;11.63;5.80;;;204.90;2022.40;;;;;;5114222;28;20073;-75
2021/01/07 02:07:24;;;;;;;11.38;7.43;;;204.80;2022.40;;;;;;5114105;28;20023;-77
2021/01/07 02:09:50;;;;;;;11.10;7.43;;;204.80;1996.80;;;;;;5114456;28;20095;-75
2021/01/07 02:12:17;;;;;;;9.73;6.32;;;204.90;1996.80;;;;;;5114253;28;20436;-74
2021/01/07 02:14:44;;;;;;;5.10;3.72;;;205.00;1996.80;;;;;;5114021;28;20387;-75
2021/01/07 02:17:11;;;;;;;5.55;2.67;;;204.90;1996.80;;;;;;5114024;28;20030;-75
2021/01/07 02:19:38;;;;;;;8.13;3.90;;;204.90;1971.20;;;;;;5113386;28;20016;-76
2021/01/07 02:22:04;;;;;;;6.07;3.88;;;204.90;1971.20;;;;;;5114024;28;20503;-75
2021/01/07 02:24:31;;;;;;;6.82;3.85;;;204.90;1971.20;;;;;;5095782;28;20376;-75
2021/01/07 02:27:07;;;;;;;10.95;6.97;;;205.00;1971.20;;;;;;5113773;28;20055;-74
2021/01/07 02:29:34;;;;;;;14.65;11.18;;;204.90;1971.20;;;;;;5114001;28;20094;-74
2021/01/07 02:32:00;;;;;;;17.23;11.32;;;204.90;1996.80;;;;;;5113807;28;20495;-75
2021/01/07 02:34:26;;;;;;;15.35;9.95;;;204.90;1996.80;;;;;;5113800;28;20026;-76
2021/01/07 02:36:52;;;;;;;15.38;10.57;;;204.80;1996.80;;;;;;5113734;28;20102;-75
2021/01/07 02:39:18;;;;;;;17.52;10.95;;;180.10;1996.80;;;;;;5114103;28;20495;-75
2021/01/07 02:41:51;;;;;;;10.32;7.20;;;180.10;1996.80;;;;;;5105206;28;20020;-75
2021/01/07 02:44:17;;;;;;;13.30;8.73;;;180.10;2022.40;;;;;;5113914;28;20020;-75
2021/01/07 02:46:43;;;;;;;13.00;8.27;;;180.10;2022.40;;;;;;5113460;28;20023;-75
2021/01/07 02:49:08;;;;;;;14.52;8.82;;;180.10;2022.40;;;;;;5113530;28;20043;-75
2021/01/07 02:51:34;;;;;;;12.50;8.75;;;204.80;2022.40;;;;;;5113594;28;20070;-75
2021/01/07 02:54:02;;;;;;;18.88;9.10;;;204.80;2022.40;;;;;;5113856;28;20466;-75
2021/01/07 02:56:29;;;;;;;12.07;7.68;;;204.80;2022.40;;;;;;5113761;28;20027;-75
2021/01/07 02:58:55;;;;;;;10.40;7.63;;;180.10;2022.40;;;;;;5113593;28;20065;-75
2021/01/07 03:01:21;;;;;;;10.55;6.53;;;180.10;2022.40;;;;;;5113579;28;20032;-75
2021/01/07 03:03:47;;;;;;;8.07;3.22;;;204.80;2022.40;;;;;;5113624;28;20028;-75
2021/01/07 03:06:13;;;;;;;2.17;1.60;;;180.10;1996.80;;;;;;5113504;28;20047;-75
2021/01/07 03:08:38;;;;;;;1.75;1.35;;;180.00;1996.80;;;;;;5113730;28;20031;-75
2021/01/07 03:11:04;;;;;;;2.03;1.40;;;180.00;1971.20;;;;;;5113359;28;20042;-76
2021/01/07 03:13:30;;;;;;;1.83;1.00;;;180.00;1971.20;;;;;;5113166;28;20027;-75
2021/01/07 03:15:56;;;;;;;1.63;1.30;;;179.90;1945.60;;;;;;5113458;28;20108;-75
2021/01/07 03:18:21;;;;;;;1.85;1.50;;;179.90;1971.20;;;;;;5113876;28;20028;-75
2021/01/07 03:20:47;;;;;;;2.55;1.38;;;179.80;1945.60;;;;;;5113422;28;20028;-75
2021/01/07 03:23:13;;;;;;;5.10;2.40;;;179.80;1945.60;;;;;;5113391;28;20407;-75
2021/01/07 03:25:39;;;;;;;2.10;1.33;;;179.80;1971.20;;;;;;5113528;28;20034;-75
2021/01/07 03:28:04;;;;;;;2.35;1.50;;;179.80;1945.60;;;;;;5112835;28;20047;-75
2021/01/07 03:30:30;;;;;;;3.30;2.05;;;179.80;1971.20;;;;;;5115153;28;20504;-75
2021/01/07 03:32:56;;;;;;;5.07;3.20;;;179.80;1971.20;;;;;;5117205;28;20086;-75
2021/01/07 03:35:22;;;;;;;5.35;3.58;;;179.70;1971.20;;;;;;5117211;28;20414;-75
2021/01/07 03:37:48;;;;;;;13.82;3.50;;;179.80;1971.20;;;;;;5117228;28;20020;-76
2021/01/07 03:40:14;;;;;;;6.55;3.92;;;179.90;1971.20;;;;;;5117082;28;20058;-76
2021/01/07 03:42:39;;;;;;;7.82;4.05;;;179.90;1971.20;;;;;;5116818;28;20068;-75
2021/01/07 03:45:06;;;;;;;3.47;2.53;;;179.80;1971.20;;;;;;5117077;28;20548;-75
2021/01/07 03:47:32;;;;;;;5.55;3.25;;;179.80;1945.60;;;;;;5116842;28;20072;-75
2021/01/07 03:49:57;;;;;;;7.00;3.95;;;179.80;1945.60;;;;;;5116737;28;20035;-76
2021/01/07 03:52:23;;;;;;;3.67;1.60;;;179.80;1945.60;;;;;;5116838;28;20103;-75
2021/01/07 03:54:49;;;;;;;4.15;2.50;;;179.90;1945.60;;;;;;5116846;28;20016;-75
2021/01/07 03:57:15;;;;;;;12.13;8.57;;;179.90;1945.60;;;;;;5116684;28;20095;-75
2021/01/07 03:59:41;;;;;;;10.35;6.93;;;180.00;1945.60;;;;;;5116512;28;20011;-75
2021/01/07 04:02:07;;;;;;;7.13;5.10;;;180.00;1920.00;;;;;;5098418;28;20028;-76
2021/01/07 04:04:32;;;;;;;7.95;6.20;;;180.00;1945.60;;;;;;5116655;28;20073;-74
2021/01/07 04:06:58;;;;;;;9.15;5.00;;;180.00;1945.60;;;;;;5116463;28;20028;-75
2021/01/07 04:09:24;;;;;;;19.98;9.75;;;179.70;1971.20;;;;;;5116563;28;20468;-75
2021/01/07 04:11:50;;;;;;;18.13;8.43;;;179.50;2048.00;;;;;;5116471;28;20059;-75
2021/01/07 04:14:15;;;;;;;17.52;8.07;;;179.30;2073.60;;;;;;5116196;28;20023;-75
2021/01/07 04:16:41;;;;;;;7.05;3.70;;;179.30;2099.20;;;;;;5116637;28;20383;-75
2021/01/07 04:19:07;;;;;;;7.55;5.05;;;179.20;2099.20;;;;;;5116434;28;20015;-74
2021/01/07 04:21:33;;;;;;;9.32;6.03;;;154.40;2124.80;;;;;;5116162;28;20027;-74
2021/01/07 04:23:59;;;;;;;5.72;3.70;;;154.40;2150.40;;;;;;5116153;28;20026;-73
2021/01/07 04:26:25;;;;;;;8.55;6.13;;;154.40;2099.20;;;;;;5116348;28;20024;-75
2021/01/07 04:28:51;;;;;;;18.25;14.48;;;179.20;2124.80;;;;;;5116005;28;20518;-75
2021/01/07 04:31:17;;;;;;;8.32;6.10;;;179.40;2099.20;;;;;;5116289;28;20459;-75
2021/01/07 04:33:42;;;;;;;10.90;6.63;;;179.30;2099.20;;;;;;5116061;28;20510;-75
2021/01/07 04:36:08;;;;;;;9.75;6.22;;;179.40;2099.20;;;;;;5115851;28;20115;-75
2021/01/07 04:38:34;;;;;;;13.70;8.00;;;179.40;2099.20;;;;;;5115806;28;20480;-75
2021/01/07 04:41:00;;;;;;;12.23;7.47;;;179.40;2099.20;;;;;;5114858;28;20077;-77
2021/01/07 04:43:26;;;;;;;18.85;10.82;;;179.50;2099.20;;;;;;5115454;28;20027;-75
2021/01/07 04:45:52;;;;;;;13.88;9.00;;;179.50;2099.20;;;;;;5115762;28;20092;-74
2021/01/07 04:48:18;;;;;;;13.48;8.38;;;179.50;2073.60;;;;;;5115798;28;20472;-75
2021/01/07 04:50:44;;;;;;;23.20;14.70;;;179.60;2099.20;;;;;;5115640;28;20035;-73
2021/01/07 04:53:10;;;;;;;15.68;9.60;;;179.50;2099.20;;;;;;5115404;28;20027;-74
2021/01/07 04:55:36;;;;;;;16.05;9.65;;;179.40;2073.60;;;;;;5115663;28;20027;-74
2021/01/07 04:58:01;;;;;;;14.10;9.35;;;179.50;2073.60;;;;;;5115628;28;20011;-74
2021/01/07 05:00:29;;;;;;;14.30;10.15;;;179.50;2073.60;;;;;;5115463;28;20023;-76
2021/01/07 05:02:56;;;;;;;20.33;14.55;;;179.50;2073.60;;;;;;5115408;28;20503;-75
2021/01/07 05:05:21;;;;;;;16.48;10.48;;;179.50;2073.60;;;;;;5115546;28;20035;-74
2021/01/07 05:07:49;;;;;;;21.65;14.15;;;179.50;2073.60;;;;;;5115156;28;20016;-75
2021/01/07 05:10:16;;;;;;;22.70;12.98;;;179.30;2099.20;;;;;;5115209;28;20022;-75
2021/01/07 05:12:42;;;;;;;20.85;12.77;;;179.40;2099.20;;;;;;5115278;28;20027;-75
2021/01/07 05:15:09;;;;;;;17.98;12.85;;;179.40;2099.20;;;;;;5115340;28;20024;-76
2021/01/07 05:17:36;;;;;;;28.02;18.75;;;179.30;2099.20;;;;;;5115074;28;20109;-74
2021/01/07 05:20:08;;;;;;;25.30;18.27;;;154.50;2124.80;;;;;;5115065;28;20028;-75
2021/01/07 05:22:35;;;;;;;38.40;23.27;;;179.20;2124.80;;;;;;5114951;28;20472;-75
2021/01/07 05:25:01;;;;;;;66.57;37.58;;;154.50;2124.80;;;;;;5115052;28;20028;-75
2021/01/07 05:27:28;;;;;;;44.08;27.92;;;154.40;2150.40;;;;;;5114939;28;20032;-74
2021/01/07 05:29:59;;;;;;;17.13;12.90;;;154.30;2150.40;;;;;;5114972;28;20050;-75
2021/01/07 05:32:37;;;;;;;13.15;9.40;;;154.40;2124.80;;;;;;5114977;28;20063;-74
2021/01/07 05:35:04;;;;;;;14.32;9.70;;;154.50;2099.20;;;;;;5114649;28;20531;-74
2021/01/07 05:37:37;;;;;;;15.43;9.65;;;179.20;2124.80;;;;;;5114836;28;20023;-74
2021/01/07 05:40:24;;;;;;;16.20;11.77;;;179.30;2099.20;;;;;;5114799;28;20073;-75
2021/01/07 05:42:53;;;;;;;16.67;12.57;;;179.20;2073.60;;;;;;5092216;28;20752;-75
2021/01/07 05:45:19;;;;;;;16.63;12.95;;;179.30;2099.20;;;;;;5092477;28;20032;-75
2021/01/07 05:47:54;;;;;;;18.67;11.98;;;179.20;2099.20;;;;;;5092113;28;20043;-74
2021/01/07 05:50:20;;;;;;;22.70;16.13;;;179.20;2099.20;;;;;;5092162;28;20032;-74
2021/01/07 05:52:48;;;;;;;36.97;26.00;;;179.30;2099.20;;;;;;5083748;28;20081;-74
2021/01/07 05:55:17;;;;;;;60.88;37.22;;;179.30;2099.20;;;;;;5074994;28;20027;-75
2021/01/07 05:57:43;;;;;;;84.55;51.35;;;179.30;2099.20;;;;;;5091729;28;20062;-74
2021/01/07 06:00:15;;;;;;;85.18;50.03;;;179.30;2099.20;;;;;;5091662;28;20095;-76
2021/01/07 06:02:43;;;;;;;73.53;46.10;;;179.30;2099.20;;;;;;5091796;28;20032;-76
2021/01/07 06:05:14;;;;;;;59.15;44.38;;;179.40;2099.20;;;;;;5091774;28;20454;-75
2021/01/07 06:07:40;;;;;;;52.90;37.90;;;179.50;2073.60;;;;;;5092148;28;20040;-76
2021/01/07 06:10:08;;;;;;;37.50;26.52;;;179.50;2073.60;;;;;;5091835;28;20123;-76
2021/01/07 06:12:34;;;;;;;33.05;23.38;;;179.50;2073.60;;;;;;5092294;28;20407;-77
2021/01/07 06:15:05;;;;;;;35.33;24.50;;;179.50;2073.60;;;;;;5134290;27;20073;-75
2021/01/07 06:17:31;;;;;;;124.13;74.25;;;179.50;2073.60;;;;;;5134445;27;20023;-75
2021/01/07 06:19:57;;;;;;;67.95;41.78;;;179.50;2073.60;;;;;;5134837;27;20026;-76
2021/01/07 06:22:24;;;;;;;47.47;31.30;;;179.50;2073.60;;;;;;5134513;27;20068;-75
2021/01/07 06:24:54;;;;;;;34.13;24.17;;;179.50;2048.00;;;;;;5134565;27;20023;-75
2021/01/07 06:27:26;;;;;;;27.90;20.25;;;179.50;2048.00;;;;;;5134172;27;20062;-75
2021/01/07 06:30:06;;;;;;;24.90;17.65;;;179.50;2048.00;;;;;;5134592;27;20152;-75
2021/01/07 06:32:33;;;;;;;25.50;16.33;;;179.50;2073.60;;;;;;5133283;27;20023;-76
2021/01/07 06:34:59;;;;;;;30.55;20.17;;;179.50;2048.00;;;;;;5113856;28;20027;-76
2021/01/07 06:37:49;;;;;;;27.10;18.75;;;179.50;2048.00;;;;;;5114034;28;20034;-75
2021/01/07 06:40:17;;;;;;;28.42;18.90;;;179.50;2048.00;;;;;;5113687;28;20024;-75
2021/01/07 06:42:49;;;;;;;24.90;18.45;;;179.50;2048.00;;;;;;5113723;28;20020;-74
2021/01/07 06:45:15;;;;;;;45.58;33.00;;;179.60;2048.00;;;;;;5113547;28;20099;-77
2021/01/07 06:47:46;;;;;;;69.85;52.85;;;179.60;2048.00;;;;;;5113752;28;20443;-75
2021/01/07 06:50:13;;;;;;;84.85;60.58;;;179.50;2048.00;;;;;;5113631;28;20048;-76
2021/01/07 06:52:43;;;;;;;97.13;71.47;;;179.50;2048.00;;;;;;5113711;28;20076;-76
2021/01/07 06:55:14;;;;;;;100.32;72.25;;;179.60;2048.00;;;;;;5113602;28;20020;-75
2021/01/07 06:57:49;;;;;;;107.93;77.88;;;179.60;2048.00;;;;;;5113569;28;20024;-75
2021/01/07 07:00:19;;;;;;;97.80;73.13;;;179.50;2048.00;;;;;;5113474;28;20022;-75
2021/01/07 07:03:02;;;;;;;95.78;68.88;;;179.60;2048.00;;;;;;5113713;28;20522;-75
2021/01/07 07:05:34;;;;;;;134.98;90.68;;;179.60;2048.00;;;;;;5115412;28;20098;-77
2021/01/07 07:08:13;;;;;;;148.25;100.68;;;179.70;2022.40;;;;;;5117677;28;20026;-76
2021/01/07 07:10:39;;;;;;;150.88;101.93;;;179.70;2022.40;;;;;;5117595;28;20043;-75
2021/01/07 07:13:25;;;;;;;195.70;129.77;;;179.70;2022.40;;;;;;5117452;28;20030;-75
2021/01/07 07:15:51;;;;;;;142.80;104.95;;;179.70;2048.00;;;;;;5117395;28;20027;-77
2021/01/07 07:18:32;;;;;;;145.13;108.78;;;179.80;2022.40;;;;;;5117560;28;20468;-75
2021/01/07 07:21:02;;;;;;;110.03;82.68;;;179.80;2048.00;;;;;;5117451;28;20040;-75
2021/01/07 07:23:30;;;;;;;117.72;90.55;;;179.80;2022.40;;;;;;5099035;28;20382;-76
2021/01/07 07:25:56;;;;;;;87.25;67.75;;;179.80;2022.40;;;;;;5117114;28;20020;-76
2021/01/07 07:28:25;;;;;;;94.78;72.95;;;179.80;2022.40;;;;;;5124277;27;20133;-76
2021/01/07 07:30:52;;;;;;;134.70;103.50;;;179.80;2022.40;;;;;;5122650;27;20471;-77
2021/01/07 07:33:39;;;;;;;123.00;93.80;;;179.70;2048.00;;;;;;5119350;27;20023;-75
2021/01/07 07:36:09;;;;;;;95.47;77.03;;;179.50;2073.60;;;;;;5119336;27;20118;-75
2021/01/07 07:38:40;;;;;;;102.63;80.10;;;179.50;2073.60;;;;;;5107279;27;20068;-75
2021/01/07 07:41:10;;;;;;;71.97;56.40;;;179.50;2073.60;;;;;;5137409;27;20020;-76
2021/01/07 07:43:38;;;;;;;64.82;48.03;;;179.40;2073.60;;;;;;5137751;27;20103;-74
2021/01/07 07:46:05;;;;;;;134.68;103.70;;;179.50;2048.00;;;;;;5117138;27;20369;-76
2021/01/07 07:48:34;;;;;;;140.55;103.25;;;179.50;2048.00;;;;;;5116813;28;20504;-75
2021/01/07 07:51:10;;;;;;;126.95;97.28;;;179.50;2048.00;;;;;;5125702;27;20035;-75
2021/01/07 07:53:37;;;;;;;122.85;93.57;;;179.50;2073.60;;;;;;5123089;27;20030;-76
2021/01/07 07:56:04;;;;;;;116.05;89.25;;;179.50;2073.60;;;;;;5124866;27;20463;-75
2021/01/07 07:58:30;;;;;;;83.05;60.63;;;179.70;2048.00;;;;;;5126646;27;20348;-75
2021/01/07 08:00:58;;;;;;;294.48;184.77;;;179.60;2048.00;;;;;;5125350;27;20034;-75
2021/01/07 08:03:31;;;;;;;94.93;69.97;;;179.70;2022.40;;;;;;5101804;28;20387;-76
2021/01/07 08:05:59;;;;;;;98.30;69.03;;;179.70;2022.40;;;;;;5124240;27;20094;-76
2021/01/07 08:08:32;;;;;;;74.18;57.10;;;179.80;2022.40;;;;;;5125501;27;20032;-75
2021/01/07 08:11:00;;;;;;;76.00;59.03;;;179.80;2048.00;;;;;;5123967;27;20035;-75
2021/01/07 08:13:30;;;;;;;71.43;55.80;;;179.90;2022.40;;;;;;5125065;27;20022;-75
2021/01/07 08:15:59;;;;;;;68.43;56.58;;;179.80;2022.40;;;;;;5121060;27;20023;-75
2021/01/07 08:18:29;;;;;;;69.55;51.10;;;179.90;2022.40;;;;;;5120709;27;20020;-75
2021/01/07 08:21:09;;;;;;;123.47;79.97;;;180.00;1996.80;;;;;;5120861;27;20480;-77
2021/01/07 08:23:35;;;;;;;90.57;70.90;;;180.00;1971.20;;;;;;5124761;27;20015;-77
2021/01/07 08:26:02;;;;;;;98.80;70.45;;;179.90;1996.80;;;;;;5123424;27;20024;-75
2021/01/07 08:28:40;;;;;;;82.18;61.50;;;180.00;1996.80;;;;;;5123938;27;20491;-77
2021/01/07 08:31:09;;;;;;;77.15;55.95;;;180.10;1996.80;;;;;;5095719;28;20040;-77
2021/01/07 08:33:36;;;;;;;71.10;53.03;;;180.10;1971.20;;;;;;5095190;28;20024;-76
2021/01/07 08:36:09;;;;;;;66.72;50.65;;;180.10;1996.80;;;;;;5077170;28;20028;-76
2021/01/07 08:38:36;;;;;;;;;;;204.80;1971.20;;;;;;5096209;28;20066;-76
2021/01/07 08:41:20;;;;;;;89.03;64.55;;;205.00;1971.20;;;;;;5095616;28;19912;-75
2021/01/07 08:43:50;;;;;;;158.75;100.93;;;204.90;1971.20;;;;;;5095465;28;20107;-76
2021/01/07 08:46:22;;;;;;;107.80;73.47;;;205.00;1945.60;;;;;;5095499;28;20031;-76
2021/01/07 08:49:03;;;;;;;81.15;57.53;;;205.10;1945.60;;;;;;5076859;28;20081;-77
2021/01/07 08:51:42;;;;;;;73.25;54.80;;;205.10;1945.60;;;;;;5094927;28;20032;-76
2021/01/07 08:54:15;;;;;;;59.95;48.78;;;205.40;1920.00;;;;;;5077091;28;20040;-78
2021/01/07 08:56:43;;;;;;;52.47;41.80;;;205.50;1894.40;;;;;;5076857;28;20434;-78
2021/01/07 08:59:25;;;;;;;52.63;41.83;;;205.60;1868.80;;;;;;5076962;28;20026;-78
2021/01/07 09:01:51;;;;;;;47.20;36.03;;;205.70;1868.80;;;;;;5095066;28;20020;-76
2021/01/07 09:04:33;;;;;;;38.40;29.27;;;230.50;1843.20;;;;;;5076546;28;20028;-76
2021/01/07 09:07:00;;;;;;;33.63;27.13;;;230.70;1843.20;;;;;;5110707;28;20023;-77
2021/01/07 09:09:27;;;;;;;43.35;32.25;;;230.80;1817.60;;;;;;5115611;28;20103;-76
2021/01/07 09:12:16;;;;;;;36.58;30.20;;;231.10;1792.00;;;;;;5115359;28;20542;-75
2021/01/07 09:15:22;;;;;;;29.02;23.52;;;231.30;1715.20;;;;;;5032576;28;20064;-74
2021/01/07 09:17:53;;;;;;;51.53;37.50;;;256.10;1715.20;;;;;;4973945;28;20027;-75
2021/01/07 09:20:20;;;;;;;42.10;34.13;;;256.10;1740.80;;;;;;4973697;28;20058;-75
2021/01/07 09:22:47;;;;;;;46.15;35.22;;;256.10;1715.20;;;;;;4985299;28;20039;-75
2021/01/07 09:25:18;;;;;;;76.85;59.28;;;256.10;1715.20;;;;;;4993191;28;20030;-76
2021/01/07 09:27:45;;;;;;;49.58;40.03;;;256.40;1715.20;;;;;;4993074;28;20115;-75
2021/01/07 09:30:11;;;;;;;93.00;64.88;;;256.40;1715.20;;;;;;4992715;28;20129;-76
2021/01/07 09:32:37;;;;;;;118.43;79.50;;;256.50;1715.20;;;;;;4993097;28;20034;-75
2021/01/07 09:35:03;;;;;;;65.50;50.92;;;256.70;1689.60;;;;;;4992875;28;20089;-75
2021/01/07 09:37:29;;;;;;;44.28;35.05;;;281.70;1689.60;;;;;;4993173;28;20034;-75
2021/01/07 09:39:56;;;;;;;42.75;34.13;;;256.80;1664.00;;;;;;4992876;28;20042;-75
2021/01/07 09:42:22;;;;;;;57.35;42.00;;;256.60;1689.60;;;;;;4992936;28;20057;-76
2021/01/07 09:44:49;;;;;;;50.13;38.35;;;256.90;1689.60;;;;;;4992655;28;20581;-76
2021/01/07 09:47:15;;;;;;;176.07;122.78;;;281.80;1664.00;;;;;;4992823;28;20034;-76
2021/01/07 09:49:42;;;;;;;40.22;31.98;;;282.00;1664.00;;;;;;5031332;28;20040;-75
2021/01/07 09:52:08;;;;;;;40.83;30.38;;;282.00;1664.00;;;;;;5089319;28;20051;-76
2021/01/07 09:54:34;;;;;;;33.17;27.17;;;282.00;1638.40;;;;;;5114755;28;20069;-75
2021/01/07 09:57:01;;;;;;;33.80;26.70;;;281.80;1664.00;;;;;;5114420;28;20024;-76
2021/01/07 09:59:29;;;;;;;32.65;25.85;;;282.20;1664.00;;;;;;5114861;28;20043;-76
2021/01/07 10:01:56;;;;;;;40.42;31.63;;;282.10;1638.40;;;;;;5114238;28;20035;-76
2021/01/07 10:04:22;;;;;;;36.88;31.08;;;282.10;1638.40;;;;;;5114330;28;20102;-76
2021/01/07 10:06:49;;;;;;;35.10;27.52;;;282.20;1638.40;;;;;;5114276;28;20038;-75
2021/01/07 10:09:15;;;;;;;27.02;21.33;;;281.60;1664.00;;;;;;5114298;28;20027;-75
2021/01/07 10:11:41;;;;;;;30.15;25.08;;;256.60;1664.00;;;;;;5114176;28;20479;-76
2021/01/07 10:14:06;;;;;;;45.20;33.58;;;256.50;1689.60;;;;;;5113855;28;20027;-76
2021/01/07 10:16:32;;;;;;;31.17;25.92;;;256.80;1715.20;;;;;;5113887;28;20027;-77
2021/01/07 10:18:58;;;;;;;39.70;31.23;;;256.90;1664.00;;;;;;5114092;28;20379;-76
2021/01/07 10:21:25;;;;;;;25.13;20.05;;;281.60;1689.60;;;;;;5114000;28;20054;-76
2021/01/07 10:23:52;;;;;;;32.05;26.08;;;256.90;1638.40;;;;;;5114085;28;20024;-75
2021/01/07 10:26:19;;;;;;;26.38;19.25;;;256.90;1664.00;;;;;;5114045;28;20049;-76
2021/01/07 10:28:47;;;;;;;23.77;18.40;;;281.60;1689.60;;;;;;5113760;28;20043;-75
2021/01/07 10:31:18;;;;;;;26.13;19.98;;;281.70;1664.00;;;;;;5113652;28;20028;-75
2021/01/07 10:33:46;;;;;;;28.20;22.40;;;281.60;1689.60;;;;;;5114053;28;20422;-75
2021/01/07 10:36:18;;;;;;;70.25;43.35;;;281.80;1664.00;;;;;;5113907;28;20024;-75
2021/01/07 10:38:48;;;;;;;34.50;25.58;;;281.70;1664.00;;;;;;5113891;28;20035;-75
2021/01/07 10:41:15;;;;;;;35.47;27.80;;;281.80;1664.00;;;;;;5113308;28;20043;-76
2021/01/07 10:43:41;;;;;;;32.17;25.67;;;281.80;1664.00;;;;;;5113489;28;20067;-76
2021/01/07 10:46:07;;;;;;;49.08;39.97;;;281.70;1664.00;;;;;;5113786;28;20027;-74
2021/01/07 10:48:43;;;;;;;37.70;28.63;;;281.70;1689.60;;;;;;5114105;28;20043;-76
2021/01/07 10:51:09;;;;;;;39.50;31.27;;;281.80;1664.00;;;;;;5113822;28;20419;-76
2021/01/07 10:54:05;;;;;;;43.05;34.13;;;281.90;1664.00;;;;;;5113622;28;20145;-74
2021/01/07 10:56:36;;;;;;;40.22;30.80;;;281.90;1664.00;;;;;;5113751;28;20160;-75
2021/01/07 10:59:09;;;;;;;46.97;35.30;;;281.80;1689.60;;;;;;5113381;28;20061;-75
2021/01/07 11:01:47;;;;;;;40.60;30.25;;;281.90;1689.60;;;;;;5113752;28;20045;-75
2021/01/07 11:04:40;;;;;;;35.80;27.25;;;281.70;1664.00;;;;;;5113613;28;20020;-76
2021/01/07 11:07:20;;;;;;;40.63;32.70;;;281.60;1664.00;;;;;;5113458;28;20035;-76
2021/01/07 11:09:51;;;;;;;33.55;26.83;;;256.80;1689.60;;;;;;5113749;28;20118;-75
2021/01/07 11:12:26;;;;;;;30.00;24.38;;;256.80;1664.00;;;;;;5113255;28;20032;-76
2021/01/07 11:15:04;;;;;;;36.42;25.58;;;281.60;1689.60;;;;;;5113495;28;20042;-75
2021/01/07 11:17:34;;;;;;;33.13;26.35;;;281.80;1664.00;;;;;;5113530;28;20034;-75
2021/01/07 11:20:04;;;;;;;42.58;32.45;;;281.90;1689.60;;;;;;5113460;28;20437;-75
2021/01/07 11:22:33;;;;;;;58.67;40.58;;;281.90;1689.60;;;;;;5113409;28;20095;-76
2021/01/07 11:25:01;;;;;;;53.72;35.83;;;281.90;1689.60;;;;;;5113394;28;20027;-76
2021/01/07 11:27:27;;;;;;;31.70;24.00;;;282.00;1664.00;;;;;;5113196;28;20094;-75
2021/01/07 11:29:53;;;;;;;23.95;19.00;;;282.00;1664.00;;;;;;5113114;28;20039;-75
2021/01/07 11:32:19;;;;;;;34.80;26.75;;;281.70;1664.00;;;;;;5113300;28;20061;-75
2021/01/07 11:34:45;;;;;;;67.57;47.35;;;281.60;1689.60;;;;;;5113431;28;20063;-76
2021/01/07 11:37:26;;;;;;;45.55;31.55;;;281.80;1715.20;;;;;;5113388;28;20024;-76
2021/01/07 11:39:58;;;;;;;66.25;49.05;;;281.80;1689.60;;;;;;5113065;28;20028;-76
2021/01/07 11:43:03;;;;;;;36.38;27.83;;;281.80;1689.60;;;;;;5113065;28;20027;-75
2021/01/07 11:45:33;;;;;;;25.90;20.10;;;281.90;1689.60;;;;;;5113108;28;20028;-76
2021/01/07 11:48:05;;;;;;;23.27;15.18;;;282.00;1664.00;;;;;;5113313;28;20093;-75
2021/01/07 11:50:37;;;;;;;17.75;14.75;;;282.10;1612.80;;;;;;5095071;28;20066;-76
2021/01/07 11:53:05;;;;;;;24.65;18.73;;;282.30;1612.80;;;;;;5116695;28;20023;-75
2021/01/07 11:55:32;;;;;;;17.17;13.35;;;282.30;1612.80;;;;;;5117182;28;20016;-75
2021/01/07 11:57:59;;;;;;;13.10;8.85;;;282.40;1587.20;;;;;;5116614;28;20020;-76
2021/01/07 12:00:25;;;;;;;19.33;15.70;;;282.50;1587.20;;;;;;5116832;28;20089;-75
2021/01/07 12:02:51;;;;;;;21.00;15.32;;;282.40;1587.20;;;;;;5116671;28;20020;-76
2021/01/07 12:05:22;;;;;;;21.77;16.70;;;282.50;1561.60;;;;;;5116533;28;20148;-76
2021/01/07 12:08:03;;;;;;;22.23;18.02;;;282.50;1561.60;;;;;;5116985;28;20023;-76